Time;durP1;ratioP1;P1;durP2;ratioP2;P2;SDS_P1;SDS_P2;PMS_P1;PMS_P2;Temp;Humidity;BMP_temperature;BMP_pressure;BME280_temperature;BME280_humidity;BME280_pressure;Samples;Min_cycle;Max_cycle;Signal;HPM_P1;HPM_P2
2021/04/21 00:01:01;;;;;;;3.60;2.00;;;22.50;49.40;;;;;;5006313;28;20452;-85
2021/04/21 00:03:29;;;;;;;1.93;1.80;;;22.50;49.50;;;;;;5012015;28;20415;-86
2021/04/21 00:05:55;;;;;;;1.90;1.80;;;22.50;49.50;;;;;;5029263;28;20489;-86
2021/04/21 00:08:22;;;;;;;2.33;1.83;;;22.50;50.00;;;;;;5030448;28;20781;-85
2021/04/21 00:10:49;;;;;;;1.90;1.70;;;22.40;49.40;;;;;;5027235;28;20419;-84
2021/04/21 00:13:16;;;;;;;2.20;2.00;;;22.50;49.60;;;;;;5007343;28;20972;-85
2021/04/21 00:15:44;;;;;;;2.67;2.17;;;22.40;49.90;;;;;;5025340;28;20411;-85
2021/04/21 00:18:11;;;;;;;2.23;2.03;;;22.40;49.60;;;;;;5036048;28;20446;-84
2021/04/21 00:20:40;;;;;;;2.33;2.13;;;22.40;49.40;;;;;;5005900;28;20451;-85
2021/04/21 00:23:09;;;;;;;2.20;2.00;;;22.50;49.50;;;;;;5027878;28;20426;-85
2021/04/21 00:25:36;;;;;;;2.07;1.87;;;22.40;49.50;;;;;;5030762;28;20471;-86
2021/04/21 00:28:05;;;;;;;1.97;1.87;;;22.40;49.50;;;;;;5028261;28;20461;-86
2021/04/21 00:30:32;;;;;;;2.70;2.07;;;22.40;49.70;;;;;;5010735;28;20411;-86
2021/04/21 00:33:01;;;;;;;2.00;1.70;;;22.40;49.60;;;;;;5026949;28;20558;-86
2021/04/21 00:35:42;;;;;;;2.00;1.80;;;22.40;49.80;;;;;;5029115;28;20412;-85
2021/04/21 00:38:12;;;;;;;2.73;2.13;;;22.40;49.60;;;;;;5008920;28;20419;-86
2021/04/21 00:40:47;;;;;;;1.97;1.77;;;22.40;49.50;;;;;;5011124;28;20403;-85
2021/04/21 00:43:38;;;;;;;2.30;2.10;;;22.40;49.50;;;;;;5028973;28;20391;-84
2021/04/21 00:46:22;;;;;;;2.13;1.73;;;22.40;49.50;;;;;;5000783;28;20820;-85
2021/04/21 00:49:08;;;;;;;2.30;1.90;;;22.40;49.90;;;;;;5013181;28;20430;-85
2021/04/21 00:51:52;;;;;;;1.80;1.70;;;22.40;49.60;;;;;;5012128;28;20420;-86
2021/04/21 00:54:23;;;;;;;2.20;2.00;;;22.30;49.50;;;;;;5009579;28;20483;-86
2021/04/21 00:56:58;;;;;;;2.40;2.20;;;22.30;50.00;;;;;;5009494;28;20428;-85
2021/04/21 00:59:50;;;;;;;1.80;1.70;;;22.30;49.60;;;;;;5009620;28;20419;-86
2021/04/21 01:02:23;;;;;;;1.80;1.70;;;22.50;49.70;;;;;;4995207;28;20419;-86
2021/04/21 01:04:53;;;;;;;1.90;1.70;;;22.30;49.80;;;;;;5009603;28;20419;-85
2021/04/21 01:07:20;;;;;;;1.73;1.63;;;22.30;49.60;;;;;;5027276;28;20893;-85
2021/04/21 01:09:49;;;;;;;1.70;1.60;;;22.30;49.70;;;;;;4993827;28;21044;-85
2021/04/21 01:12:18;;;;;;;2.30;2.03;;;22.30;49.60;;;;;;5026230;28;20412;-85
2021/04/21 01:14:49;;;;;;;1.60;1.50;;;22.30;49.60;;;;;;5027738;28;20447;-85
2021/04/21 01:17:17;;;;;;;1.97;1.77;;;22.30;49.60;;;;;;5029735;28;20407;-85
2021/04/21 01:19:58;;;;;;;1.97;1.77;;;22.30;49.70;;;;;;5005578;28;20451;-84
2021/04/21 01:22:39;;;;;;;2.20;2.00;;;22.30;49.60;;;;;;5016501;28;20451;-84
2021/04/21 01:25:11;;;;;;;2.17;1.90;;;22.30;49.60;;;;;;5007011;28;20524;-84
2021/04/21 01:27:47;;;;;;;2.20;2.00;;;22.30;49.80;;;;;;5011957;28;20848;-84
2021/04/21 01:30:19;;;;;;;1.93;1.80;;;22.30;49.70;;;;;;5028092;28;20413;-84
2021/04/21 01:32:49;;;;;;;1.90;1.80;;;22.30;50.00;;;;;;5012351;28;20517;-85
2021/04/21 01:35:20;;;;;;;1.70;1.60;;;22.30;50.00;;;;;;5025780;28;20438;-85
2021/04/21 01:37:48;;;;;;;2.30;2.10;;;22.30;49.80;;;;;;5025219;28;20422;-84
2021/04/21 01:40:20;;;;;;;1.73;1.60;;;22.30;49.70;;;;;;5039146;28;20470;-84
2021/04/21 01:42:50;;;;;;;1.90;1.63;;;22.30;49.90;;;;;;5023573;28;20427;-85
2021/04/21 01:45:22;;;;;;;2.10;1.70;;;22.30;49.80;;;;;;5030081;28;20398;-85
2021/04/21 01:47:50;;;;;;;2.10;1.87;;;22.30;49.80;;;;;;5041797;28;20410;-85
2021/04/21 01:50:17;;;;;;;1.67;1.50;;;22.30;49.80;;;;;;5018725;28;20430;-85
2021/04/21 01:56:31;;;;;;;2.40;2.20;;;22.20;49.60;;;;;;5025874;28;20423;-85
2021/04/21 01:59:08;;;;;;;1.90;1.70;;;22.20;49.60;;;;;;5008106;28;20457;-85
2021/04/21 02:02:15;;;;;;;1.47;1.37;;;22.20;50.00;;;;;;5008862;28;20935;-85
2021/04/21 02:05:16;;;;;;;2.03;1.83;;;22.00;49.60;;;;;;4980382;28;20465;-85
2021/04/21 02:08:05;;;;;;;1.80;1.60;;;22.20;49.70;;;;;;5007794;28;20442;-85
2021/04/21 02:10:58;;;;;;;2.20;2.00;;;22.20;49.80;;;;;;5023387;28;20502;-85
2021/04/21 02:13:39;;;;;;;1.90;1.80;;;22.20;49.80;;;;;;5019258;28;20490;-85
2021/04/21 02:16:36;;;;;;;1.50;1.40;;;22.10;49.70;;;;;;5008475;28;20412;-85
2021/04/21 02:19:19;;;;;;;2.13;1.90;;;22.20;49.80;;;;;;5009175;28;20446;-85
2021/04/21 02:21:56;;;;;;;1.60;1.50;;;22.10;49.80;;;;;;5036156;28;20517;-84
2021/04/21 02:24:58;;;;;;;1.70;1.60;;;22.10;50.00;;;;;;5027757;28;20977;-84
2021/04/21 02:27:46;;;;;;;2.00;1.80;;;22.10;49.80;;;;;;5028844;28;20418;-84
2021/04/21 02:30:58;;;;;;;1.60;1.50;;;22.10;50.30;;;;;;5022360;28;20430;-84
2021/04/21 02:33:39;;;;;;;1.83;1.53;;;22.10;49.80;;;;;;5016696;28;20458;-84
2021/04/21 02:36:11;;;;;;;2.30;2.00;;;22.10;49.80;;;;;;5028280;28;20422;-83
2021/04/21 02:39:02;;;;;;;2.30;1.97;;;22.10;49.90;;;;;;5045180;28;20850;-84
2021/04/21 02:42:04;;;;;;;1.50;1.40;;;22.10;49.80;;;;;;5026561;28;20424;-85
2021/04/21 02:44:49;;;;;;;1.80;1.67;;;22.20;50.10;;;;;;4986610;28;20436;-84
2021/04/21 02:54:04;;;;;;;1.97;1.77;;;22.10;49.80;;;;;;5043924;28;21009;-85
2021/04/21 02:57:02;;;;;;;2.17;1.87;;;22.10;50.00;;;;;;5026293;28;20448;-84
2021/04/21 02:59:50;;;;;;;1.60;1.50;;;22.10;49.90;;;;;;4995962;28;20433;-85
2021/04/21 03:02:26;;;;;;;2.10;1.70;;;22.10;50.00;;;;;;5026221;28;20506;-84
2021/04/21 03:05:08;;;;;;;1.53;1.40;;;22.10;50.00;;;;;;5027160;28;20970;-85
2021/04/21 03:07:53;;;;;;;1.77;1.67;;;22.10;49.90;;;;;;5044881;28;20401;-85
2021/04/21 03:10:23;;;;;;;1.53;1.40;;;22.10;50.20;;;;;;5026757;28;20418;-85
2021/04/21 03:13:06;;;;;;;1.70;1.47;;;22.10;50.10;;;;;;5028374;28;20517;-84
2021/04/21 03:15:33;;;;;;;1.87;1.70;;;22.10;49.90;;;;;;5028841;28;20508;-83
2021/04/21 03:18:02;;;;;;;1.50;1.40;;;22.10;50.00;;;;;;5029415;28;20415;-83
2021/04/21 03:20:39;;;;;;;1.60;1.50;;;22.10;50.10;;;;;;5046594;28;20417;-85
2021/04/21 03:23:15;;;;;;;1.90;1.70;;;22.10;50.00;;;;;;5028270;28;20422;-85
2021/04/21 03:25:43;;;;;;;1.97;1.77;;;22.10;50.10;;;;;;5045744;28;20482;-85
2021/04/21 03:28:13;;;;;;;1.70;1.60;;;22.10;50.00;;;;;;5028043;28;20506;-85
2021/04/21 03:30:41;;;;;;;1.60;1.50;;;22.10;50.00;;;;;;5030022;28;20950;-85
2021/04/21 03:33:14;;;;;;;1.90;1.73;;;22.10;50.00;;;;;;5046506;28;21014;-85
2021/04/21 03:35:42;;;;;;;1.60;1.50;;;22.10;50.00;;;;;;5027455;28;20773;-85
2021/04/21 03:38:10;;;;;;;1.67;1.57;;;22.10;49.90;;;;;;5013421;28;20414;-85
2021/04/21 03:40:39;;;;;;;2.10;1.40;;;22.10;50.00;;;;;;5027928;28;20422;-85
2021/04/21 03:43:05;;;;;;;1.83;1.63;;;22.10;50.20;;;;;;5046139;28;20429;-85
2021/04/21 03:45:32;;;;;;;1.67;1.33;;;22.10;50.10;;;;;;5051109;28;20411;-84
2021/04/21 03:47:59;;;;;;;1.63;1.53;;;22.00;49.90;;;;;;5030405;28;20423;-85
2021/04/21 03:50:27;;;;;;;1.80;1.60;;;22.00;49.80;;;;;;5029679;28;20426;-83
2021/04/21 03:53:05;;;;;;;1.63;1.53;;;22.10;50.20;;;;;;5029711;28;20466;-84
2021/04/21 03:55:33;;;;;;;2.20;1.63;;;22.00;49.80;;;;;;5029332;28;20423;-84
2021/04/21 03:58:06;;;;;;;2.00;1.70;;;22.00;50.00;;;;;;5029833;28;20914;-85
2021/04/21 04:00:35;;;;;;;1.80;1.70;;;22.00;50.20;;;;;;5029874;28;20438;-84
2021/04/21 04:03:09;;;;;;;1.60;1.37;;;22.00;50.10;;;;;;5047982;28;20489;-84
2021/04/21 04:05:48;;;;;;;1.70;1.53;;;22.00;50.00;;;;;;5031657;28;20414;-83
2021/04/21 04:08:17;;;;;;;1.70;1.60;;;22.00;49.90;;;;;;5030693;28;20448;-84
2021/04/21 04:10:49;;;;;;;1.43;1.33;;;22.00;50.10;;;;;;5031754;28;20422;-83
2021/04/21 04:13:16;;;;;;;1.83;1.37;;;22.00;50.10;;;;;;5033195;28;20454;-84
2021/04/21 04:15:43;;;;;;;1.77;1.53;;;22.00;50.00;;;;;;5049565;28;20429;-84
2021/04/21 04:18:14;;;;;;;1.60;1.50;;;22.00;50.10;;;;;;5031021;28;20476;-83
2021/04/21 04:20:42;;;;;;;1.70;1.43;;;22.00;50.00;;;;;;5032498;28;20399;-84
2021/04/21 04:23:09;;;;;;;1.60;1.50;;;22.00;50.20;;;;;;5049388;28;20411;-84
2021/04/21 04:25:46;;;;;;;1.23;1.00;;;21.90;50.20;;;;;;5051184;28;20418;-84
2021/04/21 04:28:12;;;;;;;1.40;1.30;;;22.00;50.10;;;;;;5036046;28;20414;-84
2021/04/21 04:30:44;;;;;;;1.70;1.60;;;22.00;50.10;;;;;;5033184;28;20430;-84
2021/04/21 04:33:10;;;;;;;1.63;1.30;;;22.00;50.10;;;;;;5050133;28;20474;-84
2021/04/21 04:35:37;;;;;;;2.07;1.87;;;21.90;50.00;;;;;;5033522;28;20415;-84
2021/04/21 04:38:04;;;;;;;1.83;1.50;;;21.90;49.90;;;;;;5045890;28;20406;-83
2021/04/21 04:40:33;;;;;;;2.13;1.93;;;21.90;50.00;;;;;;5032174;28;20485;-83
2021/04/21 04:43:01;;;;;;;1.93;1.67;;;22.00;50.10;;;;;;5031429;28;20419;-84
2021/04/21 04:45:29;;;;;;;1.63;1.47;;;22.00;50.70;;;;;;5028571;28;20449;-84
2021/04/21 04:48:01;;;;;;;1.60;1.40;;;22.00;50.00;;;;;;5029012;28;20814;-84
2021/04/21 04:50:28;;;;;;;1.40;1.30;;;22.00;50.00;;;;;;5044208;28;20410;-84
2021/04/21 04:52:58;;;;;;;1.60;1.50;;;22.00;50.10;;;;;;5028169;28;20550;-85
2021/04/21 04:55:25;;;;;;;1.40;1.30;;;22.30;50.10;;;;;;5027864;28;20429;-85
2021/04/21 04:57:53;;;;;;;1.63;1.53;;;22.10;49.90;;;;;;5046542;28;20403;-84
2021/04/21 05:00:22;;;;;;;1.30;1.20;;;22.00;50.00;;;;;;5045905;28;20441;-84
2021/04/21 05:03:13;;;;;;;1.93;1.43;;;22.10;50.10;;;;;;5028185;28;20425;-85
2021/04/21 05:05:44;;;;;;;1.60;1.50;;;22.10;49.70;;;;;;5029154;28;20433;-84
2021/04/21 05:08:17;;;;;;;1.90;1.60;;;22.10;50.00;;;;;;5046856;28;20568;-85
2021/04/21 05:10:55;;;;;;;2.10;1.90;;;22.10;49.80;;;;;;5048052;28;20417;-84
2021/04/21 05:13:23;;;;;;;2.17;1.97;;;22.20;49.70;;;;;;5030012;28;20450;-85
2021/04/21 05:15:52;;;;;;;1.73;1.50;;;22.10;49.70;;;;;;5030107;28;20489;-84
2021/04/21 05:18:29;;;;;;;2.13;1.93;;;22.20;50.20;;;;;;5029802;28;20513;-84
2021/04/21 05:21:40;;;;;;;2.20;2.00;;;22.10;49.50;;;;;;5030693;28;20517;-84
2021/04/21 05:24:36;;;;;;;1.83;1.57;;;22.20;49.60;;;;;;5032113;28;20432;-85
2021/04/21 05:27:36;;;;;;;2.13;1.90;;;22.10;49.80;;;;;;5029353;28;20411;-84
2021/04/21 05:30:31;;;;;;;2.00;1.80;;;22.20;49.60;;;;;;5050699;28;20434;-85
2021/04/21 05:33:27;;;;;;;2.17;1.97;;;22.10;49.50;;;;;;5011814;28;20473;-85
2021/04/21 05:36:36;;;;;;;1.90;1.70;;;22.20;49.60;;;;;;5029516;28;20465;-85
2021/04/21 05:39:23;;;;;;;1.53;1.43;;;22.20;49.60;;;;;;5048167;28;20406;-83
2021/04/21 05:42:09;;;;;;;1.97;1.87;;;22.10;49.50;;;;;;5043933;28;20391;-85
2021/04/21 05:45:13;;;;;;;2.20;2.00;;;22.20;49.60;;;;;;5027138;28;20422;-83
2021/04/21 05:47:45;;;;;;;2.00;1.80;;;22.20;49.50;;;;;;5044729;28;20468;-84
2021/04/21 05:50:40;;;;;;;2.07;1.87;;;22.10;49.50;;;;;;5027470;28;20442;-84
2021/04/21 05:56:40;;;;;;;1.93;1.73;;;22.20;49.50;;;;;;4986595;28;20725;-85
2021/04/21 05:59:24;;;;;;;1.93;1.73;;;22.10;49.40;;;;;;4999787;28;20493;-84
2021/04/21 06:01:50;;;;;;;2.43;2.23;;;22.20;49.50;;;;;;5002374;28;20424;-85
2021/04/21 06:04:16;;;;;;;2.67;2.47;;;22.10;49.80;;;;;;4968950;28;20425;-85
2021/04/21 06:06:44;;;;;;;2.40;2.20;;;22.20;49.60;;;;;;5000070;28;20870;-86
2021/04/21 06:09:11;;;;;;;2.93;2.10;;;22.20;50.00;;;;;;4988700;28;20496;-85
2021/04/21 06:11:37;;;;;;;2.20;1.80;;;22.20;49.60;;;;;;4985850;28;20475;-85
2021/04/21 06:14:06;;;;;;;2.60;2.27;;;22.20;49.80;;;;;;5002990;28;20461;-85
2021/04/21 06:16:34;;;;;;;1.90;1.70;;;22.20;49.50;;;;;;4988633;28;20425;-85
2021/04/21 06:19:08;;;;;;;2.50;2.30;;;22.20;49.60;;;;;;4985701;28;20408;-85
2021/04/21 06:28:22;;;;;;;2.40;2.00;;;22.20;49.30;;;;;;4985306;28;20436;-84
2021/04/21 06:31:10;;;;;;;2.53;2.20;;;22.20;49.40;;;;;;4999689;28;20424;-85
2021/04/21 06:33:44;;;;;;;2.10;1.90;;;22.20;50.20;;;;;;5009006;28;20458;-85
2021/04/21 06:36:12;;;;;;;2.43;2.23;;;22.00;49.20;;;;;;5026987;28;20489;-85
2021/04/21 06:38:42;;;;;;;2.60;2.20;;;22.20;49.40;;;;;;5027851;28;20443;-85
2021/04/21 06:41:08;;;;;;;2.40;2.20;;;22.20;49.70;;;;;;5011214;28;20419;-85
2021/04/21 06:43:37;;;;;;;1.50;1.40;;;22.20;50.00;;;;;;5026159;28;20424;-84
2021/04/21 06:46:12;;;;;;;2.50;2.30;;;22.30;49.40;;;;;;5012971;28;20482;-85
2021/04/21 06:48:50;;;;;;;2.33;2.13;;;22.30;49.80;;;;;;5028397;28;20465;-85
2021/04/21 06:51:19;;;;;;;1.93;1.73;;;22.30;49.50;;;;;;5028669;28;20431;-84
2021/04/21 06:53:47;;;;;;;2.13;1.93;;;22.30;49.50;;;;;;5011128;28;20485;-84
2021/04/21 06:56:14;;;;;;;2.20;2.00;;;22.30;49.40;;;;;;5025852;28;20407;-84
2021/04/21 06:59:04;;;;;;;2.00;1.73;;;22.30;49.50;;;;;;5028880;28;20383;-83
2021/04/21 07:01:29;;;;;;;1.63;1.53;;;22.30;49.70;;;;;;5026128;28;20447;-84
2021/04/21 07:04:10;;;;;;;1.93;1.83;;;22.30;49.80;;;;;;5026967;28;20434;-84
2021/04/21 07:06:40;;;;;;;2.07;1.87;;;22.40;50.20;;;;;;5009473;28;20446;-84
2021/04/21 07:09:15;;;;;;;2.17;1.97;;;22.30;49.50;;;;;;5010988;28;20512;-83
2021/04/21 07:11:43;;;;;;;2.10;1.90;;;22.30;49.60;;;;;;5009486;28;20434;-86
2021/04/21 07:14:19;;;;;;;2.33;2.13;;;22.30;49.30;;;;;;4992671;28;20490;-85
2021/04/21 07:16:46;;;;;;;2.53;2.27;;;22.30;49.30;;;;;;5007186;28;20409;-85
2021/04/21 07:19:13;;;;;;;2.10;1.90;;;22.30;50.10;;;;;;5009848;28;20411;-84
2021/04/21 07:21:40;;;;;;;2.40;2.13;;;22.20;49.20;;;;;;4994673;28;20420;-84
2021/04/21 07:24:10;;;;;;;2.40;2.20;;;22.30;49.30;;;;;;5013536;28;20423;-84
2021/04/21 07:27:07;;;;;;;2.60;2.10;;;22.30;49.50;;;;;;5013248;28;20442;-84
2021/04/21 07:29:44;;;;;;;2.20;2.00;;;22.40;49.20;;;;;;5012284;28;20945;-84
2021/04/21 07:32:26;;;;;;;2.37;2.17;;;22.30;49.20;;;;;;5013309;28;20470;-84
2021/04/21 07:35:03;;;;;;;2.10;1.90;;;22.40;49.30;;;;;;5030323;28;20398;-84
2021/04/21 07:37:43;;;;;;;2.67;2.30;;;22.30;49.50;;;;;;5030336;28;20391;-84
2021/04/21 07:40:30;;;;;;;2.57;2.10;;;22.40;49.50;;;;;;4995411;28;20411;-84
2021/04/21 07:43:04;;;;;;;2.10;1.90;;;22.40;49.30;;;;;;5011492;28;20434;-84
2021/04/21 07:45:42;;;;;;;1.60;1.50;;;22.40;49.40;;;;;;5012423;28;20462;-84
2021/04/21 07:48:56;;;;;;;2.20;1.83;;;22.40;49.60;;;;;;5011860;28;20951;-86
2021/04/21 07:51:23;;;;;;;2.50;2.13;;;22.40;49.20;;;;;;4952833;29;20510;-87
2021/04/21 07:54:11;;;;;;;1.67;1.57;;;22.30;50.20;;;;;;4968722;29;20465;-87
2021/04/21 08:07:06;;;;;;;1.50;1.33;;;22.30;49.20;;;;;;4952351;29;20402;-86
2021/04/21 08:09:35;;;;;;;1.83;1.47;;;22.30;49.30;;;;;;4949210;29;20419;-86
2021/04/21 08:12:35;;;;;;;1.53;1.43;;;22.30;49.50;;;;;;4936349;29;20515;-87
2021/04/21 08:15:08;;;;;;;1.67;1.57;;;22.40;49.40;;;;;;4914341;29;20428;-87
2021/04/21 08:18:01;;;;;;;1.70;1.60;;;22.40;49.40;;;;;;4906700;29;20473;-87
2021/04/21 08:20:51;;;;;;;1.70;1.60;;;22.40;49.30;;;;;;4952345;29;20399;-86
2021/04/21 08:23:22;;;;;;;1.90;1.77;;;22.40;49.30;;;;;;4935133;29;20415;-86
2021/04/21 08:25:55;;;;;;;2.20;1.50;;;22.40;49.40;;;;;;4936091;29;20426;-87
2021/04/21 08:28:23;;;;;;;1.70;1.60;;;22.40;49.40;;;;;;4956258;28;20541;-86
2021/04/21 08:38:32;;;;;;;1.60;1.50;;;22.40;49.20;;;;;;4895107;29;20444;-87
2021/04/21 08:41:23;;;;;;;2.50;1.93;;;22.40;49.20;;;;;;4890757;29;20492;-86
2021/04/21 08:43:54;;;;;;;1.63;1.53;;;22.40;49.30;;;;;;4894471;29;20426;-86
2021/04/21 08:46:42;;;;;;;1.80;1.60;;;22.40;49.30;;;;;;4876744;29;20425;-86
2021/04/21 08:49:09;;;;;;;1.80;1.70;;;22.40;49.30;;;;;;4876430;29;20426;-86
2021/04/21 08:51:39;;;;;;;2.03;1.57;;;22.40;49.40;;;;;;4894234;29;20940;-85
2021/04/21 08:57:42;;;;;;;1.67;1.57;;;22.40;49.20;;;;;;4897706;29;20409;-87
2021/04/21 09:00:09;;;;;;;1.73;1.20;;;22.40;49.20;;;;;;4878827;29;20957;-87
2021/04/21 09:03:32;;;;;;;;;;;;;;;;;;;;;
2021/04/21 09:05:58;;;;;;;1.50;1.30;;;22.40;49.20;;;;;;4893578;29;20458;-84
2021/04/21 09:08:40;;;;;;;;;;;;;;;;;;;;;
2021/04/21 09:11:06;;;;;;;1.90;1.70;;;22.40;49.20;;;;;;4890727;29;20474;-86
2021/04/21 09:13:34;;;;;;;1.87;1.67;;;22.40;49.20;;;;;;4906467;28;20492;-85
2021/04/21 09:16:11;;;;;;;1.67;1.40;;;22.40;49.20;;;;;;4973952;28;20188;-86
2021/04/21 09:18:37;;;;;;;1.80;1.60;;;22.40;49.20;;;;;;4989854;28;20813;-86
2021/04/21 09:21:05;;;;;;;1.70;1.43;;;22.40;49.20;;;;;;4989983;28;20412;-86
2021/04/21 09:27:24;;;;;;;1.70;1.43;;;22.50;49.20;;;;;;4996354;28;20409;-87
2021/04/21 09:30:07;;;;;;;2.20;1.60;;;22.50;49.30;;;;;;4970653;28;20425;-88
2021/04/21 09:35:56;;;;;;;2.00;1.80;;;22.50;49.30;;;;;;4978273;28;20424;-88
2021/04/21 09:38:24;;;;;;;5.40;1.80;;;22.50;49.30;;;;;;4986054;28;20429;-88
2021/04/21 09:40:54;;;;;;;2.07;1.83;;;22.50;49.30;;;;;;4970358;28;20480;-87
2021/04/21 09:43:28;;;;;;;2.17;1.90;;;22.50;49.30;;;;;;4985851;28;20428;-88
2021/04/21 09:45:58;;;;;;;2.30;2.10;;;22.50;49.30;;;;;;4986017;28;20432;-88
2021/04/21 09:48:32;;;;;;;2.60;2.30;;;22.50;49.30;;;;;;4986256;28;20421;-88
2021/04/21 09:51:08;;;;;;;3.23;2.33;;;22.50;49.30;;;;;;4986045;28;20424;-87
2021/04/21 09:53:44;;;;;;;2.90;2.60;;;22.60;49.40;;;;;;4986216;28;20464;-87
2021/04/21 09:56:22;;;;;;;2.63;2.23;;;22.60;49.40;;;;;;4985626;28;20409;-88
2021/04/21 09:59:00;;;;;;;2.90;2.70;;;22.60;49.40;;;;;;4983671;28;20479;-85
2021/04/21 10:01:37;;;;;;;3.33;2.60;;;22.60;49.40;;;;;;4982851;28;20500;-84
2021/04/21 10:04:11;;;;;;;2.63;2.30;;;22.60;49.40;;;;;;4986919;28;20768;-84
2021/04/21 10:07:02;;;;;;;4.00;3.20;;;22.60;49.40;;;;;;4987749;28;20428;-85
2021/04/21 10:09:41;;;;;;;3.70;3.23;;;22.60;49.40;;;;;;4987837;28;20507;-83
2021/04/21 10:12:24;;;;;;;2.93;2.30;;;22.60;49.50;;;;;;4985979;28;20427;-84
2021/04/21 10:15:09;;;;;;;2.60;2.00;;;22.60;49.40;;;;;;4987623;28;20816;-84
2021/04/21 10:17:37;;;;;;;2.80;2.50;;;22.60;49.40;;;;;;4987372;28;20409;-85
2021/04/21 10:20:15;;;;;;;3.63;3.00;;;22.50;49.30;;;;;;4986873;28;20417;-85
2021/04/21 10:22:47;;;;;;;3.20;2.90;;;22.50;49.30;;;;;;4986636;28;20416;-85
2021/04/21 10:25:15;;;;;;;3.00;2.50;;;22.50;49.30;;;;;;4987071;28;20814;-84
2021/04/21 10:27:43;;;;;;;3.07;2.77;;;22.50;49.40;;;;;;4986646;28;20491;-85
2021/04/21 10:30:10;;;;;;;3.03;2.73;;;22.50;49.40;;;;;;4992522;28;20431;-84
2021/04/21 10:32:37;;;;;;;3.03;2.73;;;22.50;49.40;;;;;;5005469;28;20420;-85
2021/04/21 10:35:04;;;;;;;4.10;2.60;;;22.50;49.40;;;;;;5006613;28;20478;-84
2021/04/21 10:37:38;;;;;;;3.77;2.93;;;22.50;49.40;;;;;;5006068;28;20423;-83
2021/04/21 10:40:05;;;;;;;2.97;2.70;;;22.70;50.10;;;;;;5006138;28;20411;-84
2021/04/21 10:42:49;;;;;;;3.53;2.83;;;22.60;49.40;;;;;;5005388;28;20422;-84
2021/04/21 10:45:18;;;;;;;3.10;2.80;;;22.60;49.40;;;;;;5026496;28;20392;-83
2021/04/21 10:47:50;;;;;;;4.00;3.60;;;22.50;49.40;;;;;;5008953;28;20415;-85
2021/04/21 10:50:44;;;;;;;3.80;2.77;;;22.60;49.50;;;;;;5008654;28;20422;-84
2021/04/21 10:53:29;;;;;;;3.10;2.80;;;22.60;49.40;;;;;;5007767;28;20447;-86
2021/04/21 10:55:55;;;;;;;3.10;2.50;;;22.60;49.40;;;;;;5008303;28;20407;-85
2021/04/21 10:58:21;;;;;;;3.30;3.00;;;22.50;49.50;;;;;;5009031;28;20418;-86
2021/04/21 11:00:50;;;;;;;3.20;2.90;;;22.50;49.40;;;;;;5026256;28;20467;-85
2021/04/21 11:03:26;;;;;;;3.10;2.80;;;22.50;49.40;;;;;;5008167;28;20508;-84
2021/04/21 11:06:00;;;;;;;2.70;2.23;;;22.60;49.50;;;;;;5007384;28;20429;-84
2021/04/21 11:08:28;;;;;;;3.20;2.87;;;22.60;49.40;;;;;;5026368;28;20407;-84
2021/04/21 11:11:03;;;;;;;3.20;2.77;;;22.60;49.40;;;;;;5007207;28;20427;-83
2021/04/21 11:13:35;;;;;;;3.50;3.20;;;22.60;49.50;;;;;;5010077;28;20450;-84
2021/04/21 11:16:06;;;;;;;3.20;2.90;;;22.60;49.40;;;;;;5009960;28;20515;-85
2021/04/21 11:18:35;;;;;;;3.30;2.87;;;22.60;49.40;;;;;;5026201;28;20711;-84
2021/04/21 11:21:07;;;;;;;3.40;3.07;;;22.60;49.40;;;;;;4993759;28;20964;-88
2021/04/21 11:24:03;;;;;;;2.73;2.50;;;22.50;49.40;;;;;;5025146;28;20431;-85
2021/04/21 11:26:32;;;;;;;3.17;2.87;;;22.60;49.40;;;;;;5008329;28;20412;-84
2021/04/21 11:29:00;;;;;;;3.87;3.03;;;22.60;49.50;;;;;;5008206;28;20865;-85
2021/04/21 11:31:42;;;;;;;3.20;2.90;;;22.60;49.40;;;;;;5025081;28;20770;-84
2021/04/21 11:34:21;;;;;;;2.80;2.60;;;22.60;49.50;;;;;;5024345;28;20447;-86
2021/04/21 11:36:50;;;;;;;3.13;2.83;;;22.60;49.40;;;;;;5005611;28;20408;-86
2021/04/21 11:39:45;;;;;;;3.20;2.63;;;22.60;49.40;;;;;;5007058;28;20443;-88
2021/04/21 11:42:16;;;;;;;3.33;3.03;;;22.60;49.40;;;;;;5008916;28;20446;-87
2021/04/21 11:44:59;;;;;;;3.37;3.07;;;22.60;49.50;;;;;;5007241;28;20446;-87
2021/04/21 11:47:46;;;;;;;3.07;2.80;;;22.60;49.40;;;;;;5007596;28;20419;-87
2021/04/21 11:50:23;;;;;;;2.93;2.63;;;22.60;49.40;;;;;;5006919;28;20484;-87
2021/04/21 11:52:52;;;;;;;3.10;2.80;;;22.60;49.40;;;;;;5024466;28;20446;-84
2021/04/21 11:55:27;;;;;;;3.67;3.30;;;22.60;49.50;;;;;;5007105;28;20414;-84
2021/04/21 11:58:12;;;;;;;3.50;2.73;;;22.60;49.50;;;;;;5024682;28;20478;-84
2021/04/21 12:00:41;;;;;;;3.30;3.00;;;22.60;49.40;;;;;;5024486;28;20403;-84
2021/04/21 12:03:18;;;;;;;3.97;3.60;;;22.50;49.40;;;;;;5007696;28;20481;-87
2021/04/21 12:05:47;;;;;;;3.60;2.60;;;22.60;49.50;;;;;;5011437;28;20435;-88
2021/04/21 12:08:18;;;;;;;3.53;3.03;;;22.50;49.40;;;;;;5028104;28;20415;-88
2021/04/21 12:10:44;;;;;;;3.10;2.80;;;22.50;49.50;;;;;;5027286;28;20411;-85
2021/04/21 12:13:11;;;;;;;3.57;3.27;;;22.50;49.50;;;;;;5009979;28;21049;-84
2021/04/21 12:15:37;;;;;;;4.83;3.13;;;22.50;49.50;;;;;;5010477;28;20489;-84
2021/04/21 12:18:04;;;;;;;5.57;3.13;;;22.50;49.50;;;;;;5010501;28;20427;-83
2021/04/21 12:20:31;;;;;;;3.43;3.13;;;22.50;49.50;;;;;;5011664;28;20447;-83
2021/04/21 12:22:58;;;;;;;4.57;3.33;;;22.50;49.50;;;;;;5010857;28;20450;-84
2021/04/21 12:25:29;;;;;;;3.73;3.30;;;22.50;49.50;;;;;;5013309;28;20435;-87
2021/04/21 12:27:57;;;;;;;3.83;3.43;;;22.50;49.50;;;;;;4997986;28;20426;-87
2021/04/21 12:30:27;;;;;;;2.83;2.50;;;22.50;49.40;;;;;;5013831;28;20442;-87
2021/04/21 12:32:53;;;;;;;3.30;3.00;;;22.60;49.60;;;;;;5014994;28;20466;-87
2021/04/21 12:35:26;;;;;;;3.27;2.80;;;22.50;49.60;;;;;;5012950;28;20449;-87
2021/04/21 12:37:57;;;;;;;3.13;2.83;;;22.50;49.50;;;;;;5008900;28;21008;-85
2021/04/21 12:40:27;;;;;;;4.13;2.70;;;22.50;49.50;;;;;;5008048;28;20419;-85
2021/04/21 12:43:07;;;;;;;3.50;2.83;;;22.50;49.50;;;;;;5007996;28;20431;-85
2021/04/21 12:45:35;;;;;;;3.30;3.00;;;22.60;49.60;;;;;;5011549;28;20445;-87
2021/04/21 12:51:30;;;;;;;3.40;3.03;;;22.50;49.50;;;;;;4972465;28;20969;-87
2021/04/21 12:53:58;;;;;;;3.97;3.67;;;22.60;49.60;;;;;;5030386;28;20427;-87
2021/04/21 12:56:33;;;;;;;3.67;3.30;;;22.50;49.60;;;;;;5029636;28;20945;-86
2021/04/21 12:59:15;;;;;;;4.67;2.63;;;22.50;49.60;;;;;;5009095;28;20972;-84
2021/04/21 13:01:43;;;;;;;3.97;3.23;;;22.50;49.50;;;;;;5008289;28;20904;-84
2021/04/21 13:04:12;;;;;;;3.93;2.87;;;22.50;49.60;;;;;;5010243;28;20427;-86
2021/04/21 13:06:50;;;;;;;3.63;2.80;;;22.50;49.60;;;;;;5011848;28;20426;-84
2021/04/21 13:09:27;;;;;;;3.40;3.10;;;22.60;49.60;;;;;;5027170;28;20514;-85
2021/04/21 13:12:02;;;;;;;4.07;3.07;;;22.50;49.50;;;;;;5006809;28;20450;-84
2021/04/21 13:14:54;;;;;;;2.70;2.50;;;22.50;49.60;;;;;;5026375;28;20442;-87
2021/04/21 13:17:24;;;;;;;3.50;3.20;;;22.60;49.60;;;;;;4994116;28;20435;-87
2021/04/21 13:19:52;;;;;;;2.97;2.67;;;22.50;49.60;;;;;;4993309;28;20404;-86
2021/04/21 13:22:26;;;;;;;3.70;3.20;;;22.50;49.60;;;;;;4994709;28;20428;-87
2021/04/21 13:24:54;;;;;;;3.00;2.70;;;22.50;49.50;;;;;;4995245;28;20412;-87
2021/04/21 13:27:26;;;;;;;3.17;2.20;;;22.50;49.60;;;;;;4992169;28;20416;-87
2021/04/21 13:29:56;;;;;;;4.40;3.00;;;22.50;49.60;;;;;;4994492;28;20436;-87
2021/04/21 13:32:22;;;;;;;2.97;2.67;;;22.50;49.60;;;;;;5013861;28;20409;-87
2021/04/21 13:34:47;;;;;;;3.97;2.70;;;22.50;49.70;;;;;;5011194;28;20468;-87
2021/04/21 13:37:42;;;;;;;2.57;2.37;;;22.50;49.60;;;;;;5012018;28;20181;-87
2021/04/21 13:40:14;;;;;;;2.80;2.60;;;22.50;49.50;;;;;;5013961;28;20189;-86
2021/04/21 13:42:56;;;;;;;3.20;2.90;;;22.50;49.60;;;;;;5013728;28;20428;-88
2021/04/21 13:45:25;;;;;;;3.23;2.93;;;22.50;50.10;;;;;;5010311;28;20385;-83
2021/04/21 13:47:51;;;;;;;2.97;2.77;;;22.50;49.60;;;;;;5008695;28;20863;-86
2021/04/21 13:50:18;;;;;;;3.00;2.77;;;22.50;50.20;;;;;;4995854;28;20471;-86
2021/04/21 13:52:49;;;;;;;5.53;3.03;;;22.50;49.60;;;;;;4993818;28;20430;-86
2021/04/21 13:55:19;;;;;;;2.83;2.57;;;22.50;49.70;;;;;;5009699;28;20416;-86
2021/04/21 13:57:55;;;;;;;3.17;2.87;;;22.50;49.60;;;;;;5006274;28;20412;-86
2021/04/21 14:00:21;;;;;;;3.03;2.83;;;22.50;49.60;;;;;;4993013;28;20418;-86
2021/04/21 14:03:17;;;;;;;3.23;2.93;;;22.50;49.70;;;;;;4992572;28;20416;-86
2021/04/21 14:05:45;;;;;;;3.33;3.03;;;22.50;49.60;;;;;;4917180;28;20574;-85
2021/04/21 14:08:10;;;;;;;3.60;2.77;;;22.50;49.60;;;;;;5009426;28;20435;-85
2021/04/21 14:10:42;;;;;;;3.20;2.90;;;22.50;49.60;;;;;;4992131;28;20519;-87
2021/04/21 14:13:16;;;;;;;2.60;2.30;;;22.50;49.70;;;;;;4992262;28;20463;-85
2021/04/21 14:15:42;;;;;;;3.70;2.67;;;22.50;49.60;;;;;;4992194;28;20427;-86
2021/04/21 14:18:12;;;;;;;3.10;2.80;;;22.50;49.60;;;;;;5009511;28;20411;-85
2021/04/21 14:20:38;;;;;;;2.60;2.40;;;22.50;49.60;;;;;;4992138;28;20195;-86